createdAt,value
2018-10-06T00:00:52.997Z,18.25
2018-10-06T00:04:58.070Z,17.07
2018-10-06T00:09:03.192Z,17.00
2018-10-06T00:13:08.238Z,13.85
2018-10-06T00:17:13.265Z,18.95
2018-10-06T00:21:18.334Z,22.02
2018-10-06T00:25:23.401Z,20.15
2018-10-06T00:29:28.470Z,21.12
2018-10-06T00:33:33.537Z,18.57
2018-10-06T00:37:38.597Z,19.10
2018-10-06T00:41:43.665Z,16.97
2018-10-06T00:45:48.749Z,16.90
2018-10-06T00:49:53.805Z,15.93
2018-10-06T00:53:58.893Z,17.17
2018-10-06T00:58:03.956Z,16.00
2018-10-06T01:02:09.089Z,16.15
2018-10-06T01:06:14.158Z,18.55
2018-10-06T01:10:19.187Z,16.90
2018-10-06T01:14:24.230Z,17.67
2018-10-06T01:18:29.278Z,17.50
2018-10-06T01:22:34.328Z,14.95
2018-10-06T01:26:39.410Z,17.98
2018-10-06T01:30:44.769Z,17.07
2018-10-06T01:34:49.848Z,16.17
2018-10-06T01:38:54.905Z,19.62
2018-10-06T01:43:00.046Z,20.12
2018-10-06T01:47:11.762Z,22.85
2018-10-06T01:51:16.787Z,23.00
2018-10-06T01:55:21.832Z,22.20
2018-10-06T01:59:26.889Z,15.32
2018-10-06T02:03:31.933Z,17.95
2018-10-06T02:07:36.980Z,17.50
2018-10-06T02:11:42.017Z,15.23
2018-10-06T02:15:47.265Z,14.83
2018-10-06T02:19:52.937Z,15.48
2018-10-06T02:23:57.977Z,17.12
2018-10-06T02:28:03.103Z,17.05
2018-10-06T02:32:08.130Z,18.20
2018-10-06T02:36:13.189Z,16.48
2018-10-06T02:40:18.248Z,17.12
2018-10-06T02:44:23.284Z,16.85
2018-10-06T02:48:28.377Z,20.12
2018-10-06T02:52:33.397Z,17.52
2018-10-06T02:56:38.420Z,17.35
2018-10-06T03:00:43.465Z,17.65
2018-10-06T03:04:48.522Z,16.82
2018-10-06T03:08:53.584Z,18.35
2018-10-06T03:12:58.591Z,17.48
2018-10-06T03:17:03.656Z,17.92
2018-10-06T03:21:08.681Z,19.48
2018-10-06T03:25:13.735Z,19.98
2018-10-06T03:29:18.784Z,16.50
2018-10-06T03:33:23.849Z,20.08
2018-10-06T03:37:28.877Z,20.32
2018-10-06T03:41:33.921Z,20.10
2018-10-06T03:45:39.193Z,21.40
2018-10-06T03:49:44.221Z,18.98
2018-10-06T03:53:49.270Z,19.70
2018-10-06T03:57:54.302Z,20.48
2018-10-06T04:01:59.327Z,21.87
2018-10-06T04:06:04.481Z,18.17
2018-10-06T04:10:09.517Z,17.93
2018-10-06T04:14:14.588Z,20.43
2018-10-06T04:18:19.644Z,19.37
2018-10-06T04:22:24.685Z,22.30
2018-10-06T04:26:29.717Z,23.67
2018-10-06T04:30:34.798Z,26.73
2018-10-06T04:34:39.819Z,20.40
2018-10-06T04:38:44.820Z,21.82
2018-10-06T04:42:49.856Z,20.55
2018-10-06T04:47:01.701Z,18.10
2018-10-06T04:51:06.753Z,18.85
2018-10-06T04:55:11.771Z,20.23
2018-10-06T04:59:16.793Z,21.57
2018-10-06T05:03:21.859Z,24.30
2018-10-06T05:07:26.797Z,27.65
2018-10-06T05:11:31.808Z,31.55
2018-10-06T05:15:36.820Z,32.20
2018-10-06T05:19:41.849Z,33.00
2018-10-06T05:23:46.904Z,32.15
2018-10-06T05:27:51.970Z,37.65
2018-10-06T05:31:56.998Z,29.05
2018-10-06T05:36:02.013Z,27.93
2018-10-06T05:40:07.124Z,27.37
2018-10-06T05:44:12.141Z,28.92
2018-10-06T05:48:17.193Z,32.33
2018-10-06T05:52:22.226Z,26.60
2018-10-06T05:56:27.268Z,27.95
2018-10-06T06:00:32.339Z,29.85
2018-10-06T06:04:37.381Z,24.75
2018-10-06T06:08:42.431Z,30.27
2018-10-06T06:12:47.470Z,31.85
2018-10-06T06:16:52.517Z,28.00
2018-10-06T06:20:57.640Z,25.77
2018-10-06T06:25:02.680Z,21.42
2018-10-06T06:29:07.705Z,22.50
2018-10-06T06:33:12.758Z,20.70
2018-10-06T06:37:17.792Z,24.20
2018-10-06T06:41:22.818Z,23.35
2018-10-06T06:45:27.841Z,20.12
2018-10-06T06:49:32.866Z,22.85
2018-10-06T06:53:37.940Z,19.15
2018-10-06T06:57:43.036Z,21.87
2018-10-06T07:01:48.050Z,22.10
2018-10-06T07:05:53.152Z,23.42
2018-10-06T07:09:58.131Z,21.80
2018-10-06T07:14:03.157Z,20.48
2018-10-06T07:18:08.221Z,20.50
2018-10-06T07:22:13.277Z,22.27
2018-10-06T07:26:18.356Z,20.68
2018-10-06T07:30:23.384Z,19.92
2018-10-06T07:34:28.462Z,19.70
2018-10-06T07:38:33.495Z,20.17
2018-10-06T07:42:38.509Z,21.75
2018-10-06T07:46:43.529Z,22.13
2018-10-06T07:50:48.672Z,22.07
2018-10-06T07:54:53.725Z,22.30
2018-10-06T07:58:58.820Z,84.00
2018-10-06T08:03:03.868Z,20.43
2018-10-06T08:07:09.525Z,20.92
2018-10-06T08:11:14.567Z,22.60
2018-10-06T08:15:19.626Z,21.70
2018-10-06T08:19:24.788Z,22.98
2018-10-06T08:23:30.029Z,24.02
2018-10-06T08:27:35.078Z,22.55
2018-10-06T08:31:40.133Z,21.35
2018-10-06T08:35:46.468Z,22.55
2018-10-06T08:39:51.530Z,26.40
2018-10-06T08:43:56.745Z,24.72
2018-10-06T08:48:01.898Z,23.27
2018-10-06T08:52:07.074Z,27.62
2018-10-06T08:56:12.238Z,23.18
2018-10-06T09:00:17.233Z,21.48
2018-10-06T09:04:22.322Z,22.02
2018-10-06T09:08:27.401Z,23.83
2018-10-06T09:12:32.454Z,42.55
2018-10-06T09:16:37.564Z,19.67
2018-10-06T09:20:42.641Z,18.92
2018-10-06T09:24:47.720Z,22.67
2018-10-06T09:28:52.785Z,18.98
2018-10-06T09:32:57.812Z,19.12
2018-10-06T09:37:03.027Z,18.87
2018-10-06T09:41:09.196Z,19.02
2018-10-06T09:45:18.735Z,19.00
2018-10-06T09:49:24.848Z,20.00
2018-10-06T09:53:30.014Z,20.37
2018-10-06T09:57:35.076Z,16.48
2018-10-06T10:01:45.466Z,14.75
2018-10-06T10:05:52.408Z,14.68
2018-10-06T10:09:57.472Z,14.33
2018-10-06T10:14:02.471Z,13.60
2018-10-06T10:18:07.687Z,13.90
2018-10-06T10:22:12.831Z,12.23
2018-10-06T10:26:17.682Z,11.15
2018-10-06T10:30:22.731Z,11.48
2018-10-06T10:34:27.824Z,9.68
2018-10-06T10:38:32.861Z,9.75
2018-10-06T10:42:37.941Z,10.85
2018-10-06T10:46:43.006Z,10.55
2018-10-06T10:50:48.969Z,10.68
2018-10-06T10:54:54.064Z,9.18
2018-10-06T10:58:59.136Z,7.10
2018-10-06T11:03:04.214Z,9.18
2018-10-06T11:07:10.402Z,7.05
2018-10-06T11:11:15.544Z,8.98
2018-10-06T11:15:20.565Z,7.87
2018-10-06T11:19:24.774Z,7.90
2018-10-06T11:23:29.702Z,8.78
2018-10-06T11:27:34.784Z,7.87
2018-10-06T11:31:39.865Z,8.10
2018-10-06T11:35:45.039Z,7.75
2018-10-06T11:39:50.120Z,9.43
2018-10-06T11:43:55.218Z,8.53
2018-10-06T11:48:00.336Z,7.75
2018-10-06T11:52:05.420Z,7.05
2018-10-06T11:56:10.549Z,7.85
2018-10-06T12:00:15.856Z,8.45
2018-10-06T12:04:20.789Z,8.40
2018-10-06T12:08:25.836Z,6.72
2018-10-06T12:12:30.904Z,6.60
2018-10-06T12:16:36.052Z,7.08
2018-10-06T12:20:41.222Z,7.30
2018-10-06T12:24:46.173Z,8.45
2018-10-06T12:28:51.234Z,7.65
2018-10-06T12:32:56.309Z,9.38
2018-10-06T12:37:01.361Z,8.58
2018-10-06T12:41:06.492Z,8.98
2018-10-06T12:45:11.753Z,7.85
2018-10-06T12:49:16.914Z,8.10
2018-10-06T12:53:22.004Z,9.30
2018-10-06T12:57:27.059Z,7.95
2018-10-06T13:01:32.139Z,8.00
2018-10-06T13:05:37.197Z,12.05
2018-10-06T13:09:42.328Z,7.72
2018-10-06T13:13:47.408Z,7.17
2018-10-06T13:17:52.485Z,10.68
2018-10-06T13:21:57.533Z,8.63
2018-10-06T13:26:02.569Z,9.28
2018-10-06T13:30:07.613Z,8.60
2018-10-06T13:34:12.700Z,9.53
2018-10-06T13:38:17.736Z,7.17
2018-10-06T13:42:22.846Z,7.83
2018-10-06T13:46:27.901Z,7.95
2018-10-06T13:50:32.953Z,8.23
2018-10-06T13:54:38.243Z,6.67
2018-10-06T13:58:43.354Z,11.35
2018-10-06T14:02:48.358Z,7.03
2018-10-06T14:06:53.437Z,7.87
2018-10-06T14:10:58.521Z,7.37
2018-10-06T14:15:03.574Z,6.70
2018-10-06T14:19:08.642Z,9.88
2018-10-06T14:23:13.704Z,6.10
2018-10-06T14:27:18.802Z,7.62
2018-10-06T14:31:23.863Z,11.15
2018-10-06T14:35:28.922Z,6.47
2018-10-06T14:39:33.985Z,9.38
2018-10-06T14:43:39.053Z,7.17
2018-10-06T14:47:44.224Z,6.42
2018-10-06T14:51:49.240Z,7.03
2018-10-06T14:55:54.673Z,7.53
2018-10-06T15:00:00.425Z,9.23
2018-10-06T15:04:05.481Z,8.83
2018-10-06T15:08:10.535Z,6.65
2018-10-06T15:12:15.658Z,5.55
2018-10-06T15:16:20.825Z,5.50
2018-10-06T15:20:26.270Z,6.35
2018-10-06T15:24:31.345Z,16.07
2018-10-06T15:28:36.523Z,7.42
2018-10-06T15:32:41.613Z,7.55
2018-10-06T15:36:46.744Z,7.08
2018-10-06T15:40:51.706Z,7.47
2018-10-06T15:44:56.824Z,6.85
2018-10-06T15:49:01.870Z,9.65
2018-10-06T15:53:06.929Z,8.15
2018-10-06T15:57:12.036Z,7.78
2018-10-06T16:01:17.084Z,7.17
2018-10-06T16:05:22.132Z,10.70
2018-10-06T16:09:27.186Z,10.48
2018-10-06T16:13:32.231Z,14.05
2018-10-06T16:17:37.277Z,16.73
2018-10-06T16:21:42.434Z,17.32
2018-10-06T16:25:47.453Z,12.00
2018-10-06T16:29:52.496Z,19.15
2018-10-06T16:33:57.549Z,17.07
2018-10-06T16:38:02.609Z,24.20
2018-10-06T16:42:07.725Z,14.38
2018-10-06T16:46:12.788Z,11.28
2018-10-06T16:50:17.853Z,12.30
2018-10-06T16:54:22.860Z,10.95
2018-10-06T16:58:28.295Z,11.33
2018-10-06T17:02:33.353Z,10.48
2018-10-06T17:06:38.482Z,10.88
2018-10-06T17:10:43.495Z,10.58
2018-10-06T17:14:48.641Z,14.28
2018-10-06T17:18:53.789Z,16.65
2018-10-06T17:22:58.861Z,18.82
2018-10-06T17:27:03.912Z,13.30
2018-10-06T17:31:08.968Z,12.53
2018-10-06T17:35:14.012Z,12.30
2018-10-06T17:39:19.058Z,12.98
2018-10-06T17:43:24.116Z,10.58
2018-10-06T17:47:29.198Z,8.70
2018-10-06T17:51:34.243Z,9.80
2018-10-06T17:55:39.301Z,12.65
2018-10-06T17:59:44.397Z,9.60
2018-10-06T18:03:49.520Z,13.00
2018-10-06T18:07:54.598Z,11.60
2018-10-06T18:11:59.658Z,9.80
2018-10-06T18:16:04.706Z,8.65
2018-10-06T18:20:09.799Z,9.93
2018-10-06T18:24:14.817Z,8.68
2018-10-06T18:28:19.869Z,8.80
2018-10-06T18:32:24.910Z,10.32
2018-10-06T18:36:30.082Z,10.00
2018-10-06T18:40:35.069Z,10.23
2018-10-06T18:44:40.257Z,13.50
2018-10-06T18:48:45.302Z,10.88
2018-10-06T18:52:50.333Z,11.28
2018-10-06T18:56:55.406Z,9.88
2018-10-06T19:01:00.424Z,10.20
2018-10-06T19:05:05.605Z,10.80
2018-10-06T19:09:10.789Z,8.90
2018-10-06T19:13:15.834Z,8.43
2018-10-06T19:17:20.915Z,8.40
2018-10-06T19:21:25.942Z,9.40
2018-10-06T19:25:31.029Z,8.95
2018-10-06T19:29:36.049Z,8.28
2018-10-06T19:33:41.144Z,9.45
2018-10-06T19:37:46.140Z,8.50
2018-10-06T19:41:51.178Z,9.58
2018-10-06T19:45:56.229Z,9.40
2018-10-06T19:50:01.317Z,9.13
2018-10-06T19:54:06.385Z,11.60
2018-10-06T19:58:11.425Z,10.13
2018-10-06T20:02:16.453Z,8.83
2018-10-06T20:06:21.590Z,10.50
2018-10-06T20:10:26.640Z,9.98
2018-10-06T20:14:31.675Z,10.20
2018-10-06T20:18:36.825Z,15.93
2018-10-06T20:22:41.923Z,18.25
2018-10-06T20:26:47.005Z,20.02
2018-10-06T20:30:52.098Z,10.72
2018-10-06T20:34:57.207Z,7.33
2018-10-06T20:39:02.261Z,10.45
2018-10-06T20:43:07.331Z,9.70
2018-10-06T20:47:12.406Z,9.85
2018-10-06T20:51:17.485Z,10.63
2018-10-06T20:55:22.613Z,14.25
2018-10-06T20:59:27.681Z,13.60
2018-10-06T21:03:32.773Z,14.23
2018-10-06T21:07:37.849Z,15.68
2018-10-06T21:11:43.109Z,15.05
2018-10-06T21:15:48.238Z,13.30
2018-10-06T21:19:53.349Z,13.35
2018-10-06T21:23:58.402Z,12.58
2018-10-06T21:28:03.473Z,13.88
2018-10-06T21:32:08.719Z,14.30
2018-10-06T21:36:13.767Z,15.40
2018-10-06T21:40:19.078Z,14.07
2018-10-06T21:44:24.149Z,14.13
2018-10-06T21:48:29.208Z,15.13
2018-10-06T21:52:34.228Z,14.55
2018-10-06T21:56:39.300Z,19.62
2018-10-06T22:00:44.389Z,16.45
2018-10-06T22:04:49.450Z,17.50
2018-10-06T22:08:55.249Z,14.70
2018-10-06T22:13:00.276Z,16.00
2018-10-06T22:17:05.357Z,14.55
2018-10-06T22:21:10.452Z,14.18
2018-10-06T22:25:15.525Z,16.70
2018-10-06T22:29:20.683Z,14.07
2018-10-06T22:33:25.677Z,16.67
2018-10-06T22:37:30.757Z,16.75
2018-10-06T22:41:35.778Z,15.05
2018-10-06T22:45:40.824Z,15.43
2018-10-06T22:49:45.848Z,14.23
2018-10-06T22:53:50.898Z,13.93
2018-10-06T22:57:55.995Z,14.68
2018-10-06T23:02:00.988Z,14.75
2018-10-06T23:06:06.986Z,14.55
2018-10-06T23:10:12.036Z,13.75
2018-10-06T23:14:17.041Z,16.15
2018-10-06T23:18:22.085Z,15.00
2018-10-06T23:22:27.168Z,21.73
2018-10-06T23:26:32.221Z,14.70
2018-10-06T23:30:37.281Z,14.55
2018-10-06T23:34:42.317Z,20.52
2018-10-06T23:38:47.358Z,20.68
2018-10-06T23:42:52.426Z,22.02
2018-10-06T23:46:57.470Z,21.68
2018-10-06T23:51:02.518Z,21.20
2018-10-06T23:55:07.585Z,19.77
2018-10-06T23:59:12.602Z,20.75
